createdAt,value
2018-04-24T00:00:40.983Z,24.73
2018-04-24T00:03:15.784Z,29.30
2018-04-24T00:05:45.756Z,25.53
2018-04-24T00:08:14.995Z,30.43
2018-04-24T00:10:44.967Z,27.57
2018-04-24T00:13:14.166Z,23.50
2018-04-24T00:15:43.375Z,29.83
2018-04-24T00:18:13.357Z,27.00
2018-04-24T00:20:42.519Z,28.37
2018-04-24T00:23:12.493Z,27.33
2018-04-24T00:25:41.710Z,26.23
2018-04-24T00:28:10.995Z,27.73
2018-04-24T00:30:40.349Z,30.00
2018-04-24T00:33:12.552Z,24.53
2018-04-24T00:35:41.805Z,26.13
2018-04-24T00:38:10.937Z,29.47
2018-04-24T00:40:40.649Z,28.50
2018-04-24T00:43:09.833Z,32.27
2018-04-24T00:45:39.050Z,27.87
2018-04-24T00:48:09.046Z,30.93
2018-04-24T00:50:38.270Z,26.23
2018-04-24T00:53:19.133Z,28.67
2018-04-24T00:55:48.280Z,28.17
2018-04-24T00:58:17.647Z,28.43
2018-04-24T01:00:46.847Z,30.10
2018-04-24T01:03:16.043Z,25.57
2018-04-24T01:05:45.221Z,29.07
2018-04-24T01:08:14.501Z,29.57
2018-04-24T01:10:43.865Z,25.73
2018-04-24T01:13:13.057Z,27.23
2018-04-24T01:15:42.447Z,29.73
2018-04-24T01:18:11.564Z,28.93
2018-04-24T01:20:41.045Z,26.93
2018-04-24T01:23:10.255Z,25.57
2018-04-24T01:25:39.445Z,24.80
2018-04-24T01:28:08.650Z,24.00
2018-04-24T01:30:38.039Z,22.90
2018-04-24T01:33:08.526Z,26.73
2018-04-24T01:35:38.487Z,21.87
2018-04-24T01:38:07.812Z,23.67
2018-04-24T01:40:37.030Z,27.27
2018-04-24T01:43:07.026Z,25.60
2018-04-24T01:45:36.255Z,25.70
2018-04-24T01:48:05.700Z,23.10
2018-04-24T01:50:34.773Z,20.83
2018-04-24T01:53:04.043Z,20.33
2018-04-24T01:55:33.398Z,22.03
2018-04-24T01:58:02.895Z,19.97
2018-04-24T02:00:32.145Z,21.97
2018-04-24T02:03:01.497Z,22.33
2018-04-24T02:05:30.653Z,25.13
2018-04-24T02:08:00.614Z,22.77
2018-04-24T02:10:29.904Z,20.67
2018-04-24T02:12:59.215Z,26.77
2018-04-24T02:15:28.508Z,23.67
2018-04-24T02:17:57.697Z,25.43
2018-04-24T02:20:26.905Z,24.10
2018-04-24T02:22:56.103Z,24.70
2018-04-24T02:25:25.259Z,22.13
2018-04-24T02:27:54.471Z,22.73
2018-04-24T02:30:23.705Z,20.87
2018-04-24T02:32:53.057Z,24.97
2018-04-24T02:35:22.404Z,25.80
2018-04-24T02:37:51.549Z,24.70
2018-04-24T02:40:20.976Z,27.47
2018-04-24T02:42:50.221Z,23.83
2018-04-24T02:45:19.459Z,25.67
2018-04-24T02:47:48.692Z,24.90
2018-04-24T02:50:17.906Z,27.27
2018-04-24T02:52:47.113Z,26.90
2018-04-24T02:55:16.360Z,23.87
2018-04-24T02:57:45.572Z,23.67
2018-04-24T03:00:14.788Z,22.27
2018-04-24T03:02:44.038Z,28.23
2018-04-24T03:05:14.106Z,29.87
2018-04-24T03:07:43.295Z,25.83
2018-04-24T03:10:12.480Z,26.60
2018-04-24T03:12:41.656Z,25.87
2018-04-24T03:15:10.802Z,27.43
2018-04-24T03:17:40.386Z,26.73
2018-04-24T03:20:09.560Z,27.40
2018-04-24T03:22:39.540Z,29.67
2018-04-24T03:25:09.636Z,33.07
2018-04-24T03:27:38.838Z,36.40
2018-04-24T03:30:07.993Z,30.47
2018-04-24T03:32:37.145Z,28.73
2018-04-24T03:35:06.632Z,30.73
2018-04-24T03:37:35.929Z,34.83
2018-04-24T03:40:05.155Z,29.90
2018-04-24T03:42:34.764Z,33.00
2018-04-24T03:45:03.991Z,33.53
2018-04-24T03:47:33.914Z,36.10
2018-04-24T03:50:03.124Z,30.30
2018-04-24T03:52:33.024Z,29.13
2018-04-24T03:55:03.056Z,28.13
2018-04-24T03:57:32.269Z,31.57
2018-04-24T04:00:01.483Z,33.27
2018-04-24T04:02:30.723Z,33.93
2018-04-24T04:04:59.974Z,30.70
2018-04-24T04:07:29.256Z,35.10
2018-04-24T04:09:59.189Z,28.27
2018-04-24T04:12:28.412Z,29.53
2018-04-24T04:14:57.676Z,32.07
2018-04-24T04:20:39.356Z,29.63
2018-04-24T04:26:09.382Z,34.40
2018-04-24T04:28:38.638Z,31.33
2018-04-24T04:31:08.883Z,30.70
2018-04-24T04:33:38.077Z,31.27
2018-04-24T04:36:08.143Z,31.23
2018-04-24T04:38:37.351Z,29.00
2018-04-24T04:41:08.400Z,24.13
2018-04-24T04:43:37.648Z,29.80
2018-04-24T04:46:06.916Z,24.00
2018-04-24T04:48:36.159Z,23.13
2018-04-24T04:51:05.431Z,22.10
2018-04-24T04:53:34.683Z,23.40
2018-04-24T04:56:04.718Z,25.87
2018-04-24T04:58:34.419Z,22.57
2018-04-24T05:01:03.746Z,24.03
2018-04-24T05:03:33.067Z,23.87
2018-04-24T05:06:02.272Z,26.07
2018-04-24T05:08:31.519Z,26.17
2018-04-24T05:11:00.760Z,20.03
2018-04-24T05:13:30.810Z,21.50
2018-04-24T05:16:00.092Z,19.33
2018-04-24T05:18:29.384Z,21.00
2018-04-24T05:20:59.399Z,16.97
2018-04-24T05:23:28.651Z,16.10
2018-04-24T05:25:58.710Z,19.03
2018-04-24T05:28:28.534Z,16.37
2018-04-24T05:30:57.801Z,14.87
2018-04-24T05:33:27.290Z,16.57
2018-04-24T05:35:56.681Z,19.10
2018-04-24T05:38:26.775Z,16.60
2018-04-24T05:40:56.163Z,16.37
2018-04-24T05:43:27.119Z,18.33
2018-04-24T05:45:56.338Z,14.70
2018-04-24T05:48:25.573Z,14.07
2018-04-24T05:50:55.578Z,21.03
2018-04-24T05:53:25.623Z,18.07
2018-04-24T05:55:55.678Z,21.10
2018-04-24T05:58:25.686Z,14.17
2018-04-24T06:00:54.754Z,14.93
2018-04-24T06:03:23.782Z,14.90
2018-04-24T06:05:53.835Z,18.87
2018-04-24T06:08:23.079Z,15.03
2018-04-24T06:10:53.134Z,17.53
2018-04-24T06:13:22.445Z,13.57
2018-04-24T06:15:51.605Z,13.83
2018-04-24T06:18:21.867Z,17.13
2018-04-24T06:20:51.164Z,15.30
2018-04-24T06:23:20.353Z,14.07
2018-04-24T06:25:49.560Z,17.97
2018-04-24T06:28:18.815Z,13.43
2018-04-24T06:30:48.026Z,13.93
2018-04-24T06:33:17.989Z,13.93
2018-04-24T06:35:47.326Z,11.83
2018-04-24T06:38:16.525Z,11.40
2018-04-24T06:40:45.754Z,13.17
2018-04-24T06:43:15.073Z,10.97
2018-04-24T06:45:44.306Z,12.87
2018-04-24T06:48:13.558Z,13.50
2018-04-24T06:50:42.781Z,10.90
2018-04-24T06:53:11.959Z,15.10
2018-04-24T06:55:41.139Z,10.73
2018-04-24T06:58:10.467Z,11.13
2018-04-24T07:00:39.710Z,13.40
2018-04-24T07:03:14.609Z,13.10
2018-04-24T07:05:43.836Z,9.90
2018-04-24T07:08:13.040Z,8.30
2018-04-24T07:10:42.493Z,9.07
2018-04-24T07:13:11.451Z,7.40
2018-04-24T07:15:40.685Z,8.37
2018-04-24T07:18:13.634Z,7.27
2018-04-24T07:20:43.616Z,10.80
2018-04-24T07:23:12.833Z,8.60
2018-04-24T07:25:42.840Z,9.47
2018-04-24T07:28:12.917Z,7.83
2018-04-24T07:30:42.121Z,7.73
2018-04-24T07:33:21.209Z,9.33
2018-04-24T07:35:50.957Z,8.93
2018-04-24T07:38:20.128Z,9.70
2018-04-24T07:40:49.346Z,9.57
2018-04-24T07:43:18.682Z,9.20
2018-04-24T07:45:49.373Z,9.47
2018-04-24T07:48:22.500Z,7.17
2018-04-24T07:50:51.687Z,9.60
2018-04-24T07:53:20.931Z,6.70
2018-04-24T07:55:50.208Z,7.90
2018-04-24T07:58:19.392Z,7.23
2018-04-24T08:00:48.555Z,9.00
2018-04-24T08:03:17.889Z,7.27
2018-04-24T08:05:47.161Z,7.10
2018-04-24T08:08:16.367Z,8.77
2018-04-24T08:10:45.581Z,7.53
2018-04-24T08:13:14.812Z,8.80
2018-04-24T08:15:44.785Z,7.10
2018-04-24T08:18:14.133Z,7.20
2018-04-24T08:20:43.434Z,7.93
2018-04-24T08:23:13.577Z,8.53
2018-04-24T08:25:42.917Z,9.17
2018-04-24T08:28:12.232Z,8.17
2018-04-24T08:30:41.728Z,6.73
2018-04-24T08:33:13.371Z,8.83
2018-04-24T08:35:43.465Z,6.43
2018-04-24T08:38:12.781Z,7.50
2018-04-24T08:40:42.073Z,6.50
2018-04-24T08:43:11.330Z,6.97
2018-04-24T08:45:40.817Z,7.90
2018-04-24T08:48:11.036Z,8.90
2018-04-24T08:50:40.339Z,7.73
2018-04-24T08:53:09.682Z,6.33
2018-04-24T08:55:39.099Z,10.60
2018-04-24T08:58:08.496Z,9.03
2018-04-24T09:00:37.632Z,7.33
2018-04-24T09:03:06.913Z,7.57
2018-04-24T09:05:37.079Z,8.20
2018-04-24T09:08:07.111Z,8.30
2018-04-24T09:10:36.412Z,9.33
2018-04-24T09:13:05.729Z,7.90
2018-04-24T09:15:35.043Z,7.57
2018-04-24T09:18:04.411Z,9.23
2018-04-24T09:20:33.761Z,6.67
2018-04-24T09:23:03.112Z,7.17
2018-04-24T09:25:32.529Z,5.97
2018-04-24T09:28:01.859Z,8.27
2018-04-24T09:30:31.045Z,10.10
2018-04-24T09:33:00.353Z,7.73
2018-04-24T09:35:29.547Z,9.20
2018-04-24T09:37:58.781Z,10.00
2018-04-24T09:40:28.040Z,10.47
2018-04-24T09:42:57.191Z,7.47
2018-04-24T09:45:26.377Z,8.87
2018-04-24T09:47:55.564Z,9.73
2018-04-24T09:50:24.764Z,8.10
2018-04-24T09:52:54.017Z,8.67
2018-04-24T09:55:23.339Z,8.13
2018-04-24T09:57:53.671Z,10.07
2018-04-24T10:00:28.501Z,6.83
2018-04-24T10:02:57.837Z,8.87
2018-04-24T10:05:27.810Z,8.13
2018-04-24T10:07:56.957Z,6.73
2018-04-24T10:10:26.936Z,7.70
2018-04-24T10:12:56.331Z,7.83
2018-04-24T10:15:25.517Z,8.37
2018-04-24T10:17:54.716Z,6.27
2018-04-24T10:20:23.977Z,8.80
2018-04-24T10:22:53.113Z,7.17
2018-04-24T10:25:22.370Z,7.93
2018-04-24T10:27:52.328Z,9.23
2018-04-24T10:30:21.668Z,6.30
2018-04-24T10:32:50.760Z,8.80
2018-04-24T10:35:21.574Z,6.97
2018-04-24T10:37:50.769Z,6.50
2018-04-24T10:40:20.016Z,8.27
2018-04-24T10:42:50.078Z,7.33
2018-04-24T10:45:19.267Z,7.20
2018-04-24T10:47:48.475Z,5.23
2018-04-24T10:50:17.682Z,6.57
2018-04-24T10:52:46.930Z,6.90
2018-04-24T10:55:16.094Z,6.37
2018-04-24T10:57:45.218Z,6.50
2018-04-24T11:00:14.519Z,7.97
2018-04-24T11:02:44.457Z,7.83
2018-04-24T11:05:13.624Z,8.37
2018-04-24T11:07:43.593Z,7.40
2018-04-24T11:10:12.777Z,6.80
2018-04-24T11:12:41.976Z,11.03
2018-04-24T11:15:11.176Z,6.90
2018-04-24T11:17:40.300Z,7.73
2018-04-24T11:20:09.458Z,7.53
2018-04-24T11:22:38.678Z,6.70
2018-04-24T11:25:07.880Z,5.90
2018-04-24T11:27:37.017Z,5.10
2018-04-24T11:30:06.324Z,9.47
2018-04-24T11:32:35.488Z,9.50
2018-04-24T11:35:04.657Z,7.93
2018-04-24T11:37:33.797Z,6.70
2018-04-24T11:40:02.998Z,6.87
2018-04-24T11:42:32.292Z,8.83
2018-04-24T11:45:01.495Z,6.87
2018-04-24T11:47:30.867Z,6.40
2018-04-24T11:50:00.001Z,7.47
2018-04-24T11:52:30.064Z,7.67
2018-04-24T11:54:59.251Z,5.13
2018-04-24T11:57:28.487Z,6.53
2018-04-24T11:59:57.665Z,5.37
2018-04-24T12:02:26.825Z,6.30
2018-04-24T12:04:56.000Z,7.87
2018-04-24T12:07:25.258Z,4.17
2018-04-24T12:09:54.546Z,4.17
2018-04-24T12:12:23.644Z,6.33
2018-04-24T12:14:52.779Z,6.53
2018-04-24T12:17:22.003Z,5.63
2018-04-24T12:19:51.227Z,4.87
2018-04-24T12:22:20.462Z,5.20
2018-04-24T12:24:49.639Z,7.17
2018-04-24T12:27:19.023Z,6.60
2018-04-24T12:29:48.271Z,8.10
2018-04-24T12:32:17.438Z,7.87
2018-04-24T12:34:46.740Z,8.37
2018-04-24T12:37:15.885Z,7.67
2018-04-24T12:39:45.043Z,8.97
2018-04-24T12:42:14.236Z,7.03
2018-04-24T12:44:43.429Z,6.47
2018-04-24T12:47:12.623Z,6.30
2018-04-24T12:49:42.418Z,6.83
2018-04-24T12:52:11.782Z,7.20
2018-04-24T12:54:41.701Z,6.60
2018-04-24T12:57:11.024Z,6.07
2018-04-24T12:59:40.363Z,5.30
2018-04-24T13:02:09.599Z,6.60
2018-04-24T13:04:38.859Z,7.20
2018-04-24T13:07:08.049Z,7.40
2018-04-24T13:09:37.277Z,5.73
2018-04-24T13:12:06.455Z,6.80
2018-04-24T13:14:35.906Z,5.50
2018-04-24T13:17:05.161Z,6.80
2018-04-24T13:19:34.332Z,5.20
2018-04-24T13:22:03.488Z,4.53
2018-04-24T13:24:33.476Z,5.87
2018-04-24T13:27:02.676Z,6.03
2018-04-24T13:29:31.855Z,6.07
2018-04-24T13:32:01.104Z,6.33
2018-04-24T13:34:30.354Z,7.60
2018-04-24T13:36:59.660Z,6.97
2018-04-24T13:39:28.948Z,6.80
2018-04-24T13:41:58.161Z,6.30
2018-04-24T13:44:27.365Z,6.63
2018-04-24T13:46:56.650Z,6.20
2018-04-24T13:49:25.824Z,9.03
2018-04-24T13:51:55.055Z,6.67
2018-04-24T13:54:24.198Z,6.20
2018-04-24T13:56:53.413Z,5.13
2018-04-24T13:59:23.404Z,5.33
2018-04-24T14:01:52.665Z,6.40
2018-04-24T14:04:22.009Z,6.20
2018-04-24T14:06:51.167Z,4.70
2018-04-24T14:09:20.369Z,5.87
2018-04-24T14:11:49.504Z,7.87
2018-04-24T14:14:18.747Z,7.70
2018-04-24T14:16:47.888Z,7.00
2018-04-24T14:19:17.933Z,7.33
2018-04-24T14:21:47.855Z,6.57
2018-04-24T14:24:17.279Z,8.53
2018-04-24T14:26:46.575Z,5.57
2018-04-24T14:29:15.887Z,6.03
2018-04-24T14:31:45.181Z,5.90
2018-04-24T14:34:14.588Z,5.97
2018-04-24T14:36:43.806Z,5.13
2018-04-24T14:39:13.120Z,4.97
2018-04-24T14:41:42.263Z,4.87
2018-04-24T14:44:11.563Z,5.23
2018-04-24T14:46:40.696Z,5.83
2018-04-24T14:49:09.841Z,6.17
2018-04-24T14:51:39.123Z,5.60
2018-04-24T14:54:08.271Z,8.43
2018-04-24T14:56:37.575Z,5.67
2018-04-24T14:59:06.771Z,6.57
2018-04-24T15:01:35.971Z,5.20
2018-04-24T15:04:05.149Z,4.47
2018-04-24T15:06:44.131Z,5.30
2018-04-24T15:09:13.393Z,4.90
2018-04-24T15:11:42.578Z,4.90
2018-04-24T15:14:11.750Z,5.17
2018-04-24T15:16:40.988Z,6.77
2018-04-24T15:19:10.227Z,7.30
2018-04-24T15:21:39.435Z,5.53
2018-04-24T15:24:09.414Z,4.57
2018-04-24T15:26:40.501Z,5.87
2018-04-24T15:29:09.745Z,4.17
2018-04-24T15:31:38.973Z,4.30
2018-04-24T15:34:08.229Z,4.07
2018-04-24T15:36:37.423Z,5.00
2018-04-24T15:39:06.602Z,3.97
2018-04-24T15:41:35.824Z,13.33
2018-04-24T15:44:05.432Z,4.67
2018-04-24T15:46:38.523Z,5.13
2018-04-24T15:49:07.725Z,4.50
2018-04-24T15:51:36.948Z,5.50
2018-04-24T15:54:07.343Z,5.87
2018-04-24T15:56:39.552Z,5.57
2018-04-24T15:59:08.920Z,5.23
2018-04-24T16:01:38.262Z,4.20
2018-04-24T16:04:07.478Z,4.63
2018-04-24T16:06:40.280Z,5.53
2018-04-24T16:09:09.510Z,5.83
2018-04-24T16:11:38.884Z,6.37
2018-04-24T16:14:08.253Z,3.93
2018-04-24T16:16:38.264Z,5.17
2018-04-24T16:19:08.450Z,6.80
2018-04-24T16:21:37.673Z,4.67
2018-04-24T16:24:07.030Z,5.63
2018-04-24T16:26:36.955Z,7.30
2018-04-24T16:29:06.179Z,4.70
2018-04-24T16:31:36.676Z,4.50
2018-04-24T16:34:05.977Z,7.70
2018-04-24T16:36:35.124Z,6.10
2018-04-24T16:39:08.673Z,6.17
2018-04-24T16:41:38.073Z,4.57
2018-04-24T16:44:07.279Z,4.80
2018-04-24T16:46:36.582Z,7.60
2018-04-24T16:49:05.763Z,5.93
2018-04-24T16:51:35.187Z,5.20
2018-04-24T16:54:05.189Z,5.87
2018-04-24T16:56:34.478Z,5.17
2018-04-24T16:59:03.673Z,6.00
2018-04-24T17:01:32.836Z,7.43
2018-04-24T17:04:06.260Z,5.27
2018-04-24T17:06:39.368Z,5.83
2018-04-24T17:09:08.580Z,5.37
2018-04-24T17:11:40.852Z,4.87
2018-04-24T17:14:17.813Z,8.47
2018-04-24T17:16:57.102Z,6.70
2018-04-24T17:19:33.246Z,7.40
2018-04-24T17:22:10.967Z,8.83
2018-04-24T17:24:42.978Z,6.43
2018-04-24T17:27:12.185Z,9.20
2018-04-24T17:29:41.447Z,7.93
2018-04-24T17:32:10.673Z,8.80
2018-04-24T17:34:39.967Z,10.73
2018-04-24T17:37:09.231Z,7.40
2018-04-24T17:39:39.225Z,14.40
2018-04-24T17:42:08.687Z,13.87
2018-04-24T17:44:37.893Z,8.03
2018-04-24T17:47:07.202Z,8.43
2018-04-24T17:49:36.587Z,4.50
2018-04-24T17:52:05.773Z,4.23
2018-04-24T17:54:35.032Z,5.70
2018-04-24T17:57:05.054Z,5.80
2018-04-24T17:59:34.267Z,5.03
2018-04-24T18:02:04.229Z,6.10
2018-04-24T18:04:33.425Z,5.30
2018-04-24T18:07:02.696Z,6.47
2018-04-24T18:09:31.905Z,5.23
2018-04-24T18:12:01.260Z,6.60
2018-04-24T18:14:31.227Z,4.67
2018-04-24T18:17:00.401Z,4.97
2018-04-24T18:19:29.621Z,5.67
2018-04-24T18:21:58.849Z,3.90
2018-04-24T18:24:28.012Z,5.10
2018-04-24T18:26:57.366Z,7.57
2018-04-24T18:29:27.350Z,6.10
2018-04-24T18:31:56.561Z,5.13
2018-04-24T18:34:25.753Z,5.07
2018-04-24T18:36:55.043Z,8.17
2018-04-24T18:39:24.183Z,5.03
2018-04-24T18:41:53.540Z,6.20
2018-04-24T18:44:22.837Z,7.13
2018-04-24T18:46:52.171Z,4.70
2018-04-24T18:49:22.148Z,5.87
2018-04-24T18:51:51.492Z,6.80
2018-04-24T18:54:21.458Z,5.87
2018-04-24T18:56:50.652Z,4.40
2018-04-24T18:59:20.024Z,5.43
2018-04-24T19:01:49.967Z,5.10
2018-04-24T19:04:19.183Z,4.23
2018-04-24T19:06:48.681Z,5.03
2018-04-24T19:09:17.902Z,7.47
2018-04-24T19:11:47.098Z,6.20
2018-04-24T19:14:21.853Z,6.90
2018-04-24T19:16:51.818Z,8.70
2018-04-24T19:19:26.964Z,7.57
2018-04-24T19:21:56.570Z,8.73
2018-04-24T19:24:31.466Z,5.73
2018-04-24T19:27:01.422Z,7.07
2018-04-24T19:29:30.611Z,6.77
2018-04-24T19:32:05.447Z,7.43
2018-04-24T19:34:34.746Z,5.00
2018-04-24T19:37:04.152Z,7.00
2018-04-24T19:39:51.215Z,8.83
2018-04-24T19:42:20.459Z,5.57
2018-04-24T19:44:50.479Z,6.53
2018-04-24T19:47:21.566Z,6.83
2018-04-24T19:49:57.372Z,6.93
2018-04-24T19:52:26.687Z,9.57
2018-04-24T19:55:01.555Z,7.90
2018-04-24T19:57:30.906Z,5.70
2018-04-24T20:00:00.125Z,6.53
2018-04-24T20:02:29.299Z,6.40
2018-04-24T20:04:58.635Z,9.13
2018-04-24T20:07:28.413Z,6.23
2018-04-24T20:09:57.646Z,7.70
2018-04-24T20:12:26.858Z,8.93
2018-04-24T20:14:56.822Z,12.37
2018-04-24T20:17:26.127Z,7.47
2018-04-24T20:19:56.078Z,7.73
2018-04-24T20:22:26.074Z,7.00
2018-04-24T20:24:55.285Z,10.37
2018-04-24T20:27:24.554Z,10.03
2018-04-24T20:29:53.695Z,8.87
2018-04-24T20:32:23.194Z,7.07
2018-04-24T20:34:52.397Z,7.17
2018-04-24T20:37:21.650Z,5.90
2018-04-24T20:39:50.951Z,6.97
2018-04-24T20:42:20.357Z,8.67
2018-04-24T20:44:49.556Z,6.80
2018-04-24T20:47:18.817Z,7.77
2018-04-24T20:49:48.788Z,8.27
2018-04-24T20:52:18.014Z,9.23
2018-04-24T20:54:48.287Z,8.63
2018-04-24T20:57:17.472Z,8.97
2018-04-24T20:59:46.703Z,9.00
2018-04-24T21:02:15.949Z,6.93
2018-04-24T21:04:45.277Z,9.20
2018-04-24T21:07:14.610Z,9.67
2018-04-24T21:09:43.801Z,9.07
2018-04-24T21:12:13.188Z,7.27
2018-04-24T21:14:42.484Z,9.57
2018-04-24T21:17:11.882Z,7.67
2018-04-24T21:19:41.211Z,10.97
2018-04-24T21:22:11.101Z,7.80
2018-04-24T21:24:40.531Z,9.57
2018-04-24T21:27:13.707Z,10.03
2018-04-24T21:29:42.997Z,8.10
2018-04-24T21:32:12.134Z,7.77
2018-04-24T21:34:41.355Z,10.57
2018-04-24T21:37:10.794Z,7.83
2018-04-24T21:39:40.089Z,11.97
2018-04-24T21:42:10.206Z,9.43
2018-04-24T21:44:39.406Z,7.93
2018-04-24T21:47:08.879Z,9.70
2018-04-24T21:49:38.834Z,8.57
2018-04-24T21:52:08.008Z,9.60
2018-04-24T21:54:37.433Z,9.67
2018-04-24T21:57:06.690Z,10.17
2018-04-24T21:59:35.951Z,9.33
2018-04-24T22:02:05.337Z,9.53
2018-04-24T22:04:34.457Z,11.10
2018-04-24T22:07:04.647Z,11.47
2018-04-24T22:09:33.851Z,12.23
2018-04-24T22:12:03.148Z,10.43
2018-04-24T22:14:32.338Z,9.40
2018-04-24T22:17:01.628Z,12.73
2018-04-24T22:19:30.842Z,11.77
2018-04-24T22:22:00.258Z,11.03
2018-04-24T22:24:29.756Z,12.90
2018-04-24T22:26:59.081Z,11.10
2018-04-24T22:29:28.251Z,14.97
2018-04-24T22:31:57.453Z,9.97
2018-04-24T22:34:26.859Z,11.00
2018-04-24T22:36:55.974Z,10.80
2018-04-24T22:39:26.059Z,10.33
2018-04-24T22:41:55.575Z,11.73
2018-04-24T22:44:24.922Z,9.90
2018-04-24T22:46:55.134Z,8.37
2018-04-24T22:49:24.383Z,8.60
2018-04-24T22:51:53.798Z,11.80
2018-04-24T22:54:22.954Z,9.37
2018-04-24T22:56:52.194Z,12.30
2018-04-24T22:59:21.449Z,11.20
2018-04-24T23:01:50.715Z,10.23
2018-04-24T23:04:20.095Z,10.27
2018-04-24T23:06:49.418Z,10.80
2018-04-24T23:09:18.648Z,9.93
2018-04-24T23:12:00.593Z,11.70
2018-04-24T23:14:48.476Z,12.13
2018-04-24T23:17:35.482Z,11.57
2018-04-24T23:20:16.161Z,11.63
2018-04-24T23:22:46.217Z,10.47
2018-04-24T23:25:15.477Z,9.40
2018-04-24T23:27:45.472Z,13.10
2018-04-24T23:30:15.660Z,10.50
2018-04-24T23:32:44.872Z,13.17
2018-04-24T23:35:14.104Z,12.57
2018-04-24T23:37:44.115Z,10.83
2018-04-24T23:40:14.191Z,11.57
2018-04-24T23:42:43.472Z,10.77
2018-04-24T23:45:12.967Z,9.50
2018-04-24T23:47:42.303Z,13.40
2018-04-24T23:50:11.572Z,9.87
2018-04-24T23:52:41.100Z,9.23
2018-04-24T23:55:10.345Z,11.63
2018-04-24T23:57:40.367Z,9.30
